Time;durP1;ratioP1;P1;durP2;ratioP2;P2;SDS_P1;SDS_P2;PMS_P1;PMS_P2;Temp;Humidity;BMP_temperature;BMP_pressure;BME280_temperature;BME280_humidity;BME280_pressure;Samples;Min_cycle;Max_cycle;Signal;HPM_P1;HPM_P2
2023/04/11 00:00:54;;;;;;;11.18;1.33;;;9.40;99.90;;;;;;5008510;28;20132;-78
2023/04/11 00:03:19;;;;;;;4.45;1.45;;;9.40;99.90;;;;;;5010431;28;20122;-78
2023/04/11 00:05:48;;;;;;;4.35;0.95;;;9.40;99.90;;;;;;5008852;28;20054;-80
2023/04/11 00:08:14;;;;;;;3.70;1.23;;;9.30;99.90;;;;;;5010087;28;20038;-81
2023/04/11 00:10:40;;;;;;;3.65;0.70;;;9.20;99.90;;;;;;5008595;28;20046;-79
2023/04/11 00:13:06;;;;;;;1.90;0.57;;;9.20;99.90;;;;;;5008501;28;20092;-81
2023/04/11 00:15:32;;;;;;;13.05;1.30;;;9.20;99.90;;;;;;5008051;28;20050;-81
2023/04/11 00:17:57;;;;;;;1.02;0.88;;;9.20;99.90;;;;;;5005024;28;20057;-81
2023/04/11 00:20:23;;;;;;;1.15;0.68;;;9.10;99.90;;;;;;5006291;28;20157;-82
2023/04/11 00:22:52;;;;;;;2.85;1.85;;;9.10;99.90;;;;;;5006354;28;20099;-75
2023/04/11 00:25:18;;;;;;;1.05;0.90;;;9.10;99.90;;;;;;5005400;28;20538;-79
2023/04/11 00:27:44;;;;;;;5.55;1.85;;;9.10;99.90;;;;;;5006338;28;20132;-74
2023/04/11 00:30:10;;;;;;;2.00;1.27;;;9.10;99.90;;;;;;5005300;28;20042;-79
2023/04/11 00:32:35;;;;;;;1.85;1.40;;;9.00;99.90;;;;;;4989065;28;20048;-78
2023/04/11 00:35:01;;;;;;;1.98;0.40;;;9.00;99.90;;;;;;5006817;28;20560;-77
2023/04/11 00:37:27;;;;;;;5.15;2.13;;;9.00;99.90;;;;;;5006155;28;20050;-77
2023/04/11 00:39:54;;;;;;;1.40;1.05;;;8.90;99.90;;;;;;5005550;28;20050;-77
2023/04/11 00:42:20;;;;;;;2.53;1.15;;;9.00;99.90;;;;;;5005831;28;20041;-79
2023/04/11 00:44:46;;;;;;;3.53;0.95;;;8.90;99.90;;;;;;5005904;28;20042;-76
2023/04/11 00:47:12;;;;;;;2.08;0.52;;;9.00;99.90;;;;;;5002905;28;20112;-81
2023/04/11 00:49:39;;;;;;;2.17;0.98;;;8.90;99.90;;;;;;5006166;28;20077;-78
2023/04/11 00:52:05;;;;;;;1.60;0.50;;;8.90;99.90;;;;;;5006130;28;20095;-82
2023/04/11 00:54:31;;;;;;;1.38;1.17;;;8.90;99.90;;;;;;5005629;28;20045;-81
2023/04/11 00:56:58;;;;;;;1.25;0.98;;;8.90;99.90;;;;;;5006099;28;20042;-81
2023/04/11 00:59:26;;;;;;;5.43;1.10;;;8.90;99.90;;;;;;5006638;28;20042;-82
2023/04/11 01:01:52;;;;;;;1.45;0.85;;;8.80;99.90;;;;;;5005424;28;20046;-79
2023/04/11 01:04:17;;;;;;;2.45;0.30;;;8.80;99.90;;;;;;5005920;28;20072;-78
2023/04/11 01:06:51;;;;;;;1.92;1.05;;;8.80;99.90;;;;;;5092661;22;20045;-77
2023/04/11 01:09:19;;;;;;;1.67;1.25;;;8.80;99.90;;;;;;5025630;28;20511;-80
2023/04/11 01:11:45;;;;;;;1.65;0.50;;;8.80;99.90;;;;;;5025156;28;20419;-77
2023/04/11 01:14:10;;;;;;;2.53;0.60;;;8.80;99.90;;;;;;5025946;28;20041;-81
2023/04/11 01:16:37;;;;;;;0.30;0.25;;;8.80;99.90;;;;;;5024351;28;20132;-75
2023/04/11 01:19:03;;;;;;;1.35;0.77;;;8.80;99.90;;;;;;5025636;28;20151;-80
2023/04/11 01:21:28;;;;;;;1.05;0.95;;;8.80;99.90;;;;;;5023946;28;20539;-79
2023/04/11 01:23:55;;;;;;;0.35;0.30;;;8.80;99.90;;;;;;5024388;28;20080;-74
2023/04/11 01:26:20;;;;;;;4.00;0.60;;;8.70;99.90;;;;;;5025867;28;20488;-78
2023/04/11 01:28:46;;;;;;;2.10;1.00;;;8.70;99.90;;;;;;5025133;28;20060;-75
2023/04/11 01:31:12;;;;;;;0.47;0.47;;;8.70;99.90;;;;;;5024262;28;20171;-76
2023/04/11 01:33:37;;;;;;;0.65;0.63;;;8.70;99.90;;;;;;5025011;28;20052;-77
2023/04/11 01:36:03;;;;;;;1.05;0.52;;;8.70;99.90;;;;;;5024652;28;20045;-75
2023/04/11 01:38:29;;;;;;;0.47;0.40;;;8.70;99.90;;;;;;5024916;28;20136;-78
2023/04/11 01:40:56;;;;;;;0.75;0.30;;;8.70;99.90;;;;;;5025185;28;20120;-75
2023/04/11 01:43:21;;;;;;;2.63;0.43;;;8.60;99.90;;;;;;5025617;28;20116;-77
2023/04/11 01:45:47;;;;;;;0.43;0.30;;;8.60;99.90;;;;;;5022532;28;20156;-78
2023/04/11 01:48:14;;;;;;;0.43;0.43;;;8.60;99.90;;;;;;5023678;28;20073;-79
2023/04/11 01:50:40;;;;;;;0.40;0.40;;;8.60;99.90;;;;;;5023136;28;20137;-74
2023/04/11 01:53:06;;;;;;;0.95;0.47;;;8.60;99.90;;;;;;5023811;28;20526;-79
2023/04/11 01:55:31;;;;;;;0.43;0.40;;;8.60;99.90;;;;;;5024408;28;20095;-79
2023/04/11 01:57:57;;;;;;;1.52;1.23;;;8.60;99.90;;;;;;5024784;28;20064;-79
2023/04/11 02:00:22;;;;;;;1.50;0.30;;;8.60;99.90;;;;;;5024141;28;20447;-79
2023/04/11 02:02:48;;;;;;;0.32;0.32;;;8.60;99.90;;;;;;5024243;28;20044;-79
2023/04/11 02:05:14;;;;;;;1.10;0.68;;;8.50;99.90;;;;;;5023528;28;20057;-79
2023/04/11 02:07:40;;;;;;;1.23;0.68;;;8.50;99.90;;;;;;5024349;28;20068;-78
2023/04/11 02:10:06;;;;;;;0.57;0.30;;;8.60;99.90;;;;;;5024741;28;20407;-75
2023/04/11 02:12:32;;;;;;;0.22;0.22;;;8.50;99.90;;;;;;5024369;28;20054;-79
2023/04/11 02:14:57;;;;;;;1.55;0.82;;;8.50;99.90;;;;;;5022222;28;20045;-80
2023/04/11 02:17:24;;;;;;;1.25;0.70;;;8.60;99.90;;;;;;5024912;28;20106;-79
2023/04/11 02:19:50;;;;;;;2.85;1.05;;;8.50;99.90;;;;;;5024589;28;20388;-78
2023/04/11 02:22:16;;;;;;;4.85;0.88;;;8.50;99.90;;;;;;5023051;28;20057;-78
2023/04/11 02:24:42;;;;;;;2.78;0.88;;;8.50;99.90;;;;;;5022847;28;20072;-74
2023/04/11 02:27:09;;;;;;;1.58;0.57;;;8.50;99.90;;;;;;5022984;28;20399;-77
2023/04/11 02:29:35;;;;;;;1.33;0.40;;;8.50;99.90;;;;;;5024227;28;20045;-76
2023/04/11 02:32:01;;;;;;;1.90;0.70;;;8.50;99.90;;;;;;5023316;28;20408;-77
2023/04/11 02:34:26;;;;;;;3.08;1.92;;;8.50;99.90;;;;;;5022402;28;20411;-76
2023/04/11 02:36:52;;;;;;;1.55;0.73;;;8.50;99.90;;;;;;5024967;28;20518;-78
2023/04/11 02:39:22;;;;;;;1.00;0.65;;;8.50;99.90;;;;;;5023939;28;20034;-79
2023/04/11 02:41:48;;;;;;;0.70;0.70;;;8.50;99.90;;;;;;5022365;28;20053;-79
2023/04/11 02:44:14;;;;;;;1.40;0.52;;;8.50;99.90;;;;;;5023837;28;20042;-75
2023/04/11 02:46:39;;;;;;;3.15;0.63;;;8.50;99.90;;;;;;5022696;28;20049;-80
2023/04/11 02:49:05;;;;;;;2.97;0.70;;;8.50;99.90;;;;;;5022863;28;20034;-80
2023/04/11 02:51:32;;;;;;;2.45;1.13;;;8.50;99.90;;;;;;5023951;28;20046;-80
2023/04/11 02:53:57;;;;;;;5.72;1.35;;;8.50;99.90;;;;;;5023845;28;20116;-81
2023/04/11 02:56:23;;;;;;;1.80;0.68;;;8.50;99.90;;;;;;5022946;28;20152;-80
2023/04/11 02:58:48;;;;;;;3.92;0.73;;;8.50;99.90;;;;;;5005352;28;20042;-80
2023/04/11 03:01:17;;;;;;;2.92;1.08;;;8.50;99.90;;;;;;5022728;28;20049;-79
2023/04/11 03:03:43;;;;;;;1.25;0.88;;;8.50;99.90;;;;;;5023581;28;20049;-79
2023/04/11 03:06:09;;;;;;;1.48;0.52;;;8.50;99.90;;;;;;5023432;28;20446;-78
2023/04/11 03:08:36;;;;;;;1.67;1.58;;;8.50;99.90;;;;;;5022550;28;20049;-77
2023/04/11 03:11:02;;;;;;;1.67;1.02;;;8.50;99.90;;;;;;5022555;28;20049;-76
2023/04/11 03:13:28;;;;;;;0.68;0.65;;;8.50;99.90;;;;;;5021772;28;20483;-78
2023/04/11 03:15:54;;;;;;;2.65;1.27;;;8.50;99.90;;;;;;5021803;28;20045;-79
2023/04/11 03:18:23;;;;;;;1.33;1.00;;;8.50;99.90;;;;;;5022604;28;20668;-74
2023/04/11 03:20:50;;;;;;;3.75;1.00;;;8.50;99.90;;;;;;5023379;28;20041;-80
2023/04/11 03:23:15;;;;;;;6.32;0.75;;;8.50;99.90;;;;;;5023827;28;20046;-80
2023/04/11 03:25:43;;;;;;;2.83;1.25;;;8.50;99.90;;;;;;5038658;28;20506;-81
2023/04/11 03:28:09;;;;;;;1.35;0.65;;;8.50;99.90;;;;;;5023531;28;20037;-79
2023/04/11 03:30:39;;;;;;;1.55;0.60;;;8.50;99.90;;;;;;5037663;28;20403;-75
2023/04/11 03:33:04;;;;;;;32.78;2.35;;;8.50;99.90;;;;;;5023823;28;20056;-79
2023/04/11 03:35:30;;;;;;;3.95;1.52;;;8.50;99.90;;;;;;5021455;28;20591;-78
2023/04/11 03:37:56;;;;;;;2.17;1.20;;;8.50;99.90;;;;;;5023378;28;20041;-79
2023/04/11 03:40:21;;;;;;;0.98;0.88;;;8.40;99.90;;;;;;5023970;28;20490;-78
2023/04/11 03:42:47;;;;;;;1.38;0.93;;;8.50;99.90;;;;;;5023003;28;20088;-79
2023/04/11 03:45:13;;;;;;;1.23;1.15;;;8.50;99.90;;;;;;5022467;28;20724;-79
2023/04/11 03:47:39;;;;;;;3.92;1.33;;;8.40;99.90;;;;;;5014543;28;20053;-80
2023/04/11 03:50:06;;;;;;;1.67;0.65;;;8.40;99.90;;;;;;5002599;28;20038;-80
2023/04/11 03:52:32;;;;;;;1.70;0.93;;;8.40;99.90;;;;;;5005583;28;20050;-81
2023/04/11 03:54:58;;;;;;;2.00;0.80;;;8.40;99.90;;;;;;5023366;28;20164;-81
2023/04/11 03:57:25;;;;;;;1.83;0.40;;;8.40;99.90;;;;;;5027449;28;20554;-80
2023/04/11 03:59:54;;;;;;;1.55;0.80;;;8.40;99.90;;;;;;5025301;28;20042;-80
2023/04/11 04:02:20;;;;;;;1.25;0.88;;;8.40;99.90;;;;;;5027765;28;20065;-77
2023/04/11 04:04:47;;;;;;;1.00;0.55;;;8.40;99.90;;;;;;5026548;28;20500;-78
2023/04/11 04:07:13;;;;;;;3.47;0.93;;;8.30;99.90;;;;;;5026619;28;20648;-78
2023/04/11 04:09:42;;;;;;;3.13;1.17;;;8.40;99.90;;;;;;5026545;28;20558;-77
2023/04/11 04:12:07;;;;;;;2.67;1.20;;;8.30;99.90;;;;;;5025757;28;20070;-81
2023/04/11 04:14:33;;;;;;;4.10;1.17;;;8.30;99.90;;;;;;5025539;28;20334;-76
2023/04/11 04:16:59;;;;;;;1.80;1.63;;;8.30;99.90;;;;;;5026839;28;20044;-81
2023/04/11 04:19:25;;;;;;;0.98;0.75;;;8.30;99.90;;;;;;5026697;28;20721;-75
2023/04/11 04:21:50;;;;;;;3.25;0.77;;;8.30;99.90;;;;;;5026701;28;20056;-77
2023/04/11 04:24:16;;;;;;;5.38;1.35;;;8.30;99.90;;;;;;5026735;28;20124;-81
2023/04/11 04:26:42;;;;;;;1.35;0.98;;;8.20;99.90;;;;;;5024994;28;20052;-80
2023/04/11 04:29:08;;;;;;;3.00;0.75;;;8.30;99.90;;;;;;5026515;28;20071;-81
2023/04/11 04:31:35;;;;;;;1.23;0.93;;;8.30;99.90;;;;;;5024044;28;20411;-79
2023/04/11 04:34:09;;;;;;;3.67;0.73;;;8.30;99.90;;;;;;5026461;28;20049;-79
2023/04/11 04:36:55;;;;;;;5.40;0.88;;;8.20;99.90;;;;;;5025857;28;20041;-78
2023/04/11 04:39:20;;;;;;;0.93;0.77;;;8.20;99.90;;;;;;5018843;28;20037;-82
2023/04/11 04:41:57;;;;;;;2.13;0.70;;;8.20;99.90;;;;;;5008135;28;20056;-81
2023/04/11 04:44:26;;;;;;;3.95;1.05;;;8.20;99.90;;;;;;5024063;28;20091;-79
2023/04/11 04:46:56;;;;;;;1.92;1.27;;;8.20;99.90;;;;;;5026459;28;20053;-80
2023/04/11 04:49:22;;;;;;;3.92;1.48;;;8.20;99.90;;;;;;5024822;28;20034;-80
2023/04/11 04:51:47;;;;;;;1.65;1.23;;;8.20;99.90;;;;;;5024338;28;20574;-80
2023/04/11 04:54:14;;;;;;;2.92;0.93;;;8.20;99.90;;;;;;5026520;28;20124;-79
2023/04/11 04:56:40;;;;;;;2.22;1.20;;;8.20;99.90;;;;;;5025368;28;20052;-76
2023/04/11 04:59:06;;;;;;;4.25;1.02;;;8.10;99.90;;;;;;5024923;28;20049;-78
2023/04/11 05:01:31;;;;;;;6.60;3.05;;;8.10;99.90;;;;;;5023368;28;20045;-78
2023/04/11 05:03:57;;;;;;;2.88;1.00;;;8.00;99.90;;;;;;5023597;28;20702;-76
2023/04/11 05:06:28;;;;;;;8.13;1.33;;;8.00;99.90;;;;;;5024167;28;20057;-77
2023/04/11 05:08:56;;;;;;;1.63;1.35;;;7.90;99.90;;;;;;5026057;28;20052;-81
2023/04/11 05:11:22;;;;;;;2.15;1.08;;;7.90;99.90;;;;;;5024728;28;20052;-81
2023/04/11 05:13:48;;;;;;;2.92;0.80;;;7.90;99.90;;;;;;5025520;28;20143;-76
2023/04/11 05:16:15;;;;;;;2.38;1.17;;;7.90;99.90;;;;;;5022679;28;20029;-81
2023/04/11 05:18:41;;;;;;;3.25;2.45;;;7.90;99.90;;;;;;5019106;28;20052;-83
2023/04/11 05:21:06;;;;;;;3.60;1.05;;;7.90;99.90;;;;;;5021620;28;20045;-83
2023/04/11 05:23:32;;;;;;;6.10;0.98;;;7.80;99.90;;;;;;5024064;28;20526;-85
2023/04/11 05:25:58;;;;;;;1.75;0.98;;;7.90;99.90;;;;;;5020628;28;20034;-81
2023/04/11 05:28:23;;;;;;;4.00;1.27;;;7.80;99.90;;;;;;5016368;28;20099;-78
2023/04/11 05:30:49;;;;;;;2.50;1.45;;;7.80;99.90;;;;;;5021717;28;20033;-80
2023/04/11 05:33:15;;;;;;;1.33;1.17;;;7.80;99.90;;;;;;5022235;28;20045;-79
2023/04/11 05:35:40;;;;;;;3.20;0.88;;;7.80;99.90;;;;;;5017414;28;20091;-82
2023/04/11 05:38:07;;;;;;;7.00;0.93;;;7.80;99.90;;;;;;5025087;28;20048;-79
2023/04/11 05:40:33;;;;;;;3.72;1.48;;;7.80;99.90;;;;;;5024578;28;20454;-80
2023/04/11 05:42:58;;;;;;;3.60;1.45;;;7.80;99.90;;;;;;5024887;28;20037;-78
2023/04/11 05:45:24;;;;;;;3.60;0.95;;;7.90;99.90;;;;;;5021387;28;20128;-80
2023/04/11 05:47:49;;;;;;;6.90;1.58;;;7.90;99.90;;;;;;5020771;28;20144;-79
2023/04/11 05:50:15;;;;;;;8.73;1.63;;;7.90;99.90;;;;;;5022235;28;20037;-78
2023/04/11 05:52:41;;;;;;;2.08;1.38;;;7.90;99.90;;;;;;5021971;28;20048;-78
2023/04/11 05:55:07;;;;;;;3.97;2.10;;;7.90;99.90;;;;;;5021491;28;20558;-78
2023/04/11 05:57:32;;;;;;;1.50;1.42;;;7.90;99.90;;;;;;5021414;28;20046;-79
2023/04/11 06:00:00;;;;;;;4.68;1.73;;;7.90;99.90;;;;;;5017000;28;20060;-83
2023/04/11 06:02:29;;;;;;;5.43;1.73;;;8.00;99.90;;;;;;5021368;28;20089;-81
2023/04/11 06:04:55;;;;;;;5.18;1.80;;;8.00;99.90;;;;;;5004704;28;20068;-79
2023/04/11 06:07:21;;;;;;;14.43;4.45;;;8.00;99.90;;;;;;5010055;28;20061;-83
2023/04/11 06:09:47;;;;;;;3.75;1.00;;;8.00;99.90;;;;;;5022784;28;20132;-84
2023/04/11 06:12:13;;;;;;;2.20;1.55;;;8.00;99.90;;;;;;5023483;28;20053;-85
2023/04/11 06:14:39;;;;;;;1.92;1.55;;;8.00;99.90;;;;;;5020472;28;20037;-85
2023/04/11 06:17:04;;;;;;;1.73;1.27;;;8.00;99.90;;;;;;5022887;28;20448;-85
2023/04/11 06:19:30;;;;;;;4.40;0.80;;;8.00;99.90;;;;;;5022729;28;20088;-86
2023/04/11 06:21:56;;;;;;;4.38;2.05;;;8.00;99.90;;;;;;5021546;28;20302;-85
2023/04/11 06:24:37;;;;;;;2.03;1.55;;;8.00;99.90;;;;;;5022535;28;20041;-84
2023/04/11 06:27:03;;;;;;;4.65;1.98;;;8.00;99.90;;;;;;5003310;28;20136;-91
2023/04/11 06:29:29;;;;;;;2.70;1.20;;;8.00;99.90;;;;;;5008559;28;20052;-85
2023/04/11 06:31:56;;;;;;;0.90;0.57;;;8.00;99.90;;;;;;5023266;28;20047;-82
2023/04/11 06:34:21;;;;;;;6.90;1.73;;;8.00;99.90;;;;;;5022239;28;20406;-85
2023/04/11 06:36:48;;;;;;;11.52;3.75;;;8.00;99.90;;;;;;5021459;28;20121;-83
2023/04/11 06:39:17;;;;;;;2.45;1.75;;;8.10;99.90;;;;;;5023087;28;20103;-82
2023/04/11 06:41:43;;;;;;;1.58;0.77;;;8.00;99.90;;;;;;5022949;28;20118;-82
2023/04/11 06:44:09;;;;;;;5.13;1.75;;;8.00;99.90;;;;;;5022198;28;20034;-89
2023/04/11 06:46:35;;;;;;;1.42;1.33;;;8.00;99.90;;;;;;5022166;28;20128;-77
2023/04/11 06:49:02;;;;;;;6.70;1.92;;;8.00;99.90;;;;;;5003257;28;20100;-88
2023/04/11 06:51:28;;;;;;;6.25;1.33;;;8.00;99.90;;;;;;5003098;28;20050;-84
2023/04/11 06:53:53;;;;;;;2.63;1.23;;;8.00;99.90;;;;;;5003542;28;20428;-88
2023/04/11 06:56:19;;;;;;;2.72;2.53;;;8.10;99.90;;;;;;5003113;28;20049;-89
2023/04/11 06:58:45;;;;;;;5.75;1.75;;;8.10;99.90;;;;;;5001622;28;20716;-85
2023/04/11 07:01:11;;;;;;;4.25;2.20;;;8.10;99.90;;;;;;5001967;28;20080;-89
2023/04/11 07:03:36;;;;;;;3.20;2.35;;;8.10;99.90;;;;;;4985126;28;20054;-84
2023/04/11 07:06:02;;;;;;;4.55;1.88;;;8.10;99.90;;;;;;5003551;28;20049;-86
2023/04/11 07:08:28;;;;;;;8.50;3.70;;;8.10;99.90;;;;;;5002653;28;20045;-85
2023/04/11 07:10:54;;;;;;;4.80;1.48;;;8.20;99.90;;;;;;5003593;28;20042;-84
2023/04/11 07:13:20;;;;;;;4.55;1.50;;;8.10;99.90;;;;;;5003139;28;20511;-80
2023/04/11 07:15:45;;;;;;;5.07;1.90;;;8.10;99.90;;;;;;5000250;28;20121;-79
2023/04/11 07:18:11;;;;;;;3.83;1.88;;;8.10;99.90;;;;;;5002197;28;20587;-82
2023/04/11 07:20:36;;;;;;;6.50;1.02;;;8.10;99.90;;;;;;5001968;28;20050;-83
2023/04/11 07:23:02;;;;;;;1.23;0.95;;;8.20;99.90;;;;;;5001888;28;20046;-83
2023/04/11 07:25:32;;;;;;;4.18;2.38;;;8.10;99.90;;;;;;5002119;28;20046;-82
2023/04/11 07:27:59;;;;;;;1.05;0.98;;;8.20;99.90;;;;;;5005379;28;20054;-79
2023/04/11 07:30:25;;;;;;;2.03;1.27;;;8.20;99.90;;;;;;5004175;28;20060;-80
2023/04/11 07:32:51;;;;;;;1.33;1.27;;;8.30;99.90;;;;;;5007497;28;20103;-91
2023/04/11 07:35:17;;;;;;;3.42;1.17;;;8.20;99.90;;;;;;5005225;28;20046;-89
2023/04/11 07:37:44;;;;;;;4.32;2.25;;;8.30;99.90;;;;;;5006224;28;20060;-85
2023/04/11 07:40:10;;;;;;;4.75;1.20;;;8.20;99.90;;;;;;4988943;28;20049;-90
2023/04/11 07:42:36;;;;;;;4.05;1.52;;;8.20;99.90;;;;;;5005163;28;20052;-87
2023/04/11 07:45:02;;;;;;;1.27;1.17;;;8.20;99.90;;;;;;5005450;28;20046;-84
2023/04/11 07:47:27;;;;;;;4.00;1.42;;;8.20;99.90;;;;;;5013888;28;20041;-80
2023/04/11 07:49:53;;;;;;;1.65;1.10;;;8.20;99.90;;;;;;5026652;28;20045;-85
2023/04/11 07:52:18;;;;;;;3.80;1.92;;;8.30;99.90;;;;;;5008371;28;20077;-83
2023/04/11 07:54:44;;;;;;;6.57;1.95;;;8.30;99.90;;;;;;5024736;28;20064;-83
2023/04/11 07:57:10;;;;;;;3.72;0.90;;;8.30;99.90;;;;;;5025715;28;20045;-87
2023/04/11 07:59:35;;;;;;;3.20;1.58;;;8.30;99.90;;;;;;5023706;28;20042;-83
2023/04/11 08:02:01;;;;;;;2.15;0.60;;;8.30;99.90;;;;;;5025041;28;20456;-82
2023/04/11 08:04:32;;;;;;;1.17;0.75;;;8.30;99.90;;;;;;5025930;28;20045;-79
2023/04/11 08:06:57;;;;;;;0.80;0.80;;;8.30;99.90;;;;;;5025838;28;20061;-89
2023/04/11 08:09:24;;;;;;;3.30;1.73;;;8.40;99.90;;;;;;5026151;28;20399;-87
2023/04/11 08:11:49;;;;;;;2.53;0.73;;;8.40;99.90;;;;;;5025841;28;20045;-86
2023/04/11 08:14:15;;;;;;;3.33;0.95;;;8.30;99.90;;;;;;5024619;28;20146;-85
2023/04/11 08:16:41;;;;;;;2.10;1.33;;;8.30;99.90;;;;;;5025559;28;20132;-79
2023/04/11 08:19:06;;;;;;;12.68;2.08;;;8.30;99.90;;;;;;5025476;28;20128;-86
2023/04/11 08:21:32;;;;;;;8.68;1.10;;;8.40;99.90;;;;;;5025017;28;20144;-88
2023/04/11 08:23:57;;;;;;;5.63;1.48;;;8.30;99.90;;;;;;5025258;28;20038;-87
2023/04/11 08:26:23;;;;;;;4.63;1.63;;;8.30;99.90;;;;;;5025940;28;20120;-86
2023/04/11 08:28:49;;;;;;;1.75;0.75;;;8.30;99.90;;;;;;5022827;28;20049;-84
2023/04/11 08:31:14;;;;;;;1.98;1.85;;;8.40;99.90;;;;;;5025651;28;20052;-85
2023/04/11 08:33:40;;;;;;;3.45;1.85;;;8.40;99.90;;;;;;5025056;28;20037;-81
2023/04/11 08:36:08;;;;;;;4.45;1.45;;;8.50;99.90;;;;;;5024895;28;20094;-83
2023/04/11 08:38:35;;;;;;;3.00;1.40;;;8.50;99.90;;;;;;5024135;28;20041;-82
2023/04/11 08:41:00;;;;;;;3.33;0.60;;;8.50;99.90;;;;;;5025015;28;20325;-80
2023/04/11 08:43:26;;;;;;;1.65;1.55;;;8.50;99.90;;;;;;5023960;28;20531;-82
2023/04/11 08:45:51;;;;;;;2.55;1.27;;;8.50;99.90;;;;;;5024566;28;20068;-83
2023/04/11 08:48:20;;;;;;;3.17;2.67;;;8.60;99.90;;;;;;5011398;28;20045;-85
2023/04/11 08:50:46;;;;;;;1.60;1.27;;;8.60;99.90;;;;;;5004908;28;20046;-89
2023/04/11 08:53:13;;;;;;;4.88;1.13;;;8.60;99.90;;;;;;5020710;28;20046;-84
2023/04/11 08:55:48;;;;;;;5.20;2.08;;;8.60;99.90;;;;;;5003970;28;20446;-86
2023/04/11 08:58:14;;;;;;;0.90;0.80;;;8.50;99.90;;;;;;5003881;28;20053;-81
2023/04/11 09:00:39;;;;;;;4.05;1.85;;;8.50;99.90;;;;;;5003852;28;20152;-83
2023/04/11 09:03:07;;;;;;;2.60;2.38;;;8.50;99.90;;;;;;5005027;28;20441;-82
2023/04/11 09:05:40;;;;;;;1.55;1.00;;;8.40;99.90;;;;;;5004685;28;20046;-86
2023/04/11 09:08:11;;;;;;;4.70;1.70;;;8.50;99.90;;;;;;5019904;28;20057;-79
2023/04/11 09:10:38;;;;;;;4.55;0.90;;;8.50;99.90;;;;;;5004461;28;20103;-84
2023/04/11 09:13:26;;;;;;;3.00;1.13;;;8.50;99.90;;;;;;5005393;28;20077;-86
2023/04/11 09:16:08;;;;;;;0.80;0.43;;;8.50;99.90;;;;;;5019467;28;20049;-85
2023/04/11 09:18:44;;;;;;;1.80;0.80;;;8.50;99.90;;;;;;5019499;28;20103;-82
2023/04/11 09:21:12;;;;;;;2.22;0.88;;;8.50;99.90;;;;;;5003470;28;20049;-87
2023/04/11 09:23:38;;;;;;;4.03;1.13;;;8.50;99.90;;;;;;5004443;28;20118;-83
2023/04/11 09:26:08;;;;;;;0.77;0.40;;;8.50;99.90;;;;;;5004208;28;20128;-86
2023/04/11 09:28:51;;;;;;;4.43;0.70;;;8.20;99.90;;;;;;5003382;28;20404;-83
2023/04/11 09:31:16;;;;;;;3.08;1.60;;;8.00;99.90;;;;;;5019571;28;20184;-83
2023/04/11 09:33:53;;;;;;;1.08;0.93;;;7.80;99.90;;;;;;5004501;28;20577;-80
2023/04/11 09:36:20;;;;;;;5.05;1.13;;;7.70;99.90;;;;;;5004316;28;20054;-81
2023/04/11 09:38:46;;;;;;;6.15;2.08;;;7.60;99.90;;;;;;5004317;28;20051;-83
2023/04/11 09:41:12;;;;;;;5.05;1.95;;;7.50;99.90;;;;;;5019417;28;20441;-76
2023/04/11 09:43:54;;;;;;;0.82;0.82;;;7.50;99.90;;;;;;5003124;28;20188;-82
2023/04/11 09:46:20;;;;;;;1.23;1.08;;;7.40;99.90;;;;;;5019755;28;20050;-79
2023/04/11 09:48:49;;;;;;;1.00;0.50;;;7.30;99.90;;;;;;5037125;28;20230;-81
2023/04/11 09:51:16;;;;;;;10.43;1.60;;;7.20;99.90;;;;;;5022350;28;20128;-79
2023/04/11 09:53:42;;;;;;;0.82;0.82;;;7.10;99.90;;;;;;5023330;28;20053;-88
2023/04/11 09:56:08;;;;;;;0.57;0.50;;;6.80;99.90;;;;;;5022718;28;20495;-86
2023/04/11 09:58:35;;;;;;;3.40;1.35;;;6.60;99.90;;;;;;5022879;28;20037;-84
2023/04/11 10:01:02;;;;;;;1.10;0.90;;;6.40;99.90;;;;;;5022698;28;20057;-85
2023/04/11 10:03:33;;;;;;;4.60;0.80;;;6.30;99.90;;;;;;5022331;28;20049;-83
2023/04/11 10:06:01;;;;;;;3.42;1.38;;;6.30;99.90;;;;;;5023462;28;20072;-84
2023/04/11 10:08:31;;;;;;;11.50;1.83;;;6.30;99.90;;;;;;5023920;28;20218;-87
2023/04/11 10:10:58;;;;;;;2.20;1.08;;;6.30;99.90;;;;;;5022355;28;20171;-85
2023/04/11 10:13:38;;;;;;;2.97;1.63;;;6.40;99.90;;;;;;5038827;28;20042;-86
2023/04/11 10:16:07;;;;;;;0.77;0.77;;;6.50;99.90;;;;;;5039336;28;20116;-86
2023/04/11 10:18:33;;;;;;;2.45;0.70;;;6.50;99.90;;;;;;5022277;28;20377;-82
2023/04/11 10:21:00;;;;;;;2.10;0.93;;;6.60;99.90;;;;;;5023244;28;20037;-82
2023/04/11 10:23:25;;;;;;;2.17;0.70;;;6.60;99.90;;;;;;5023473;28;20053;-79
2023/04/11 10:26:00;;;;;;;4.35;1.42;;;6.60;99.90;;;;;;5023646;28;20117;-81
2023/04/11 10:28:37;;;;;;;1.70;1.13;;;6.60;99.90;;;;;;5019666;28;20041;-81
2023/04/11 10:31:15;;;;;;;0.95;0.47;;;6.70;99.90;;;;;;5009345;28;20093;-81
2023/04/11 10:34:11;;;;;;;3.85;1.70;;;6.80;99.90;;;;;;5007074;28;20076;-82
2023/04/11 10:37:07;;;;;;;3.80;1.77;;;6.90;99.90;;;;;;5000304;28;20041;-92
2023/04/11 10:40:05;;;;;;;3.97;1.13;;;7.00;99.90;;;;;;5016579;28;20057;-76
2023/04/11 10:42:35;;;;;;;6.53;1.42;;;7.10;99.90;;;;;;5014627;28;20309;-84
2023/04/11 10:45:26;;;;;;;4.72;1.75;;;7.10;99.90;;;;;;5020183;28;20080;-83
2023/04/11 10:47:57;;;;;;;3.00;1.08;;;7.20;99.90;;;;;;5013261;28;20042;-83
2023/04/11 10:50:26;;;;;;;4.68;1.33;;;7.10;99.90;;;;;;5020921;28;20049;-78
2023/04/11 10:52:55;;;;;;;7.63;0.82;;;7.00;99.90;;;;;;5022517;28;20049;-83
2023/04/11 10:55:22;;;;;;;1.40;1.30;;;7.00;99.90;;;;;;5005183;28;20052;-82
2023/04/11 10:58:21;;;;;;;2.13;1.05;;;6.90;99.90;;;;;;5020367;28;20049;-85
2023/04/11 11:00:52;;;;;;;3.58;1.75;;;7.00;99.90;;;;;;5010212;28;20515;-94
2023/04/11 11:03:29;;;;;;;2.95;1.35;;;7.10;99.90;;;;;;5024039;28;20056;-92
2023/04/11 11:06:04;;;;;;;1.90;1.02;;;7.20;99.90;;;;;;5019302;28;20045;-80
2023/04/11 11:08:40;;;;;;;2.05;1.40;;;7.20;99.90;;;;;;5003037;28;20046;-88
2023/04/11 11:11:10;;;;;;;2.03;0.73;;;7.30;99.90;;;;;;5022310;28;20041;-85
2023/04/11 11:13:52;;;;;;;2.38;1.85;;;7.30;99.90;;;;;;5019225;28;20527;-83
2023/04/11 11:16:19;;;;;;;;;;;7.30;99.90;;;;;;5023296;28;20042;-85
2023/04/11 11:18:58;;;;;;;1.25;1.00;;;7.40;99.90;;;;;;5021336;28;19925;-84
2023/04/11 11:21:26;;;;;;;1.77;1.65;;;7.40;99.90;;;;;;5019923;28;20053;-90
2023/04/11 11:24:00;;;;;;;3.90;1.92;;;7.50;99.90;;;;;;5021333;28;20069;-84
2023/04/11 11:26:40;;;;;;;4.68;1.45;;;7.50;99.90;;;;;;5003911;28;20044;-80
2023/04/11 11:29:07;;;;;;;5.43;2.25;;;7.60;99.90;;;;;;5019665;28;20673;-80
2023/04/11 11:31:40;;;;;;;6.53;1.08;;;7.60;99.90;;;;;;5013152;28;20041;-88
2023/04/11 11:34:07;;;;;;;3.53;2.08;;;7.70;99.90;;;;;;5012043;28;20408;-86
2023/04/11 11:36:44;;;;;;;0.98;0.60;;;7.70;99.90;;;;;;5001141;28;20041;-81
2023/04/11 11:39:11;;;;;;;3.13;1.25;;;7.80;99.90;;;;;;5010048;28;20045;-79
2023/04/11 11:41:37;;;;;;;12.45;2.40;;;7.90;99.90;;;;;;5022744;28;20056;-79
2023/04/11 11:44:05;;;;;;;6.07;2.88;;;7.90;99.90;;;;;;5015379;28;20052;-82
2023/04/11 11:46:32;;;;;;;9.85;1.63;;;8.00;99.90;;;;;;5021642;28;20096;-94
2023/04/11 11:49:07;;;;;;;4.10;1.30;;;8.00;99.90;;;;;;5023910;28;20373;-81
2023/04/11 11:51:47;;;;;;;1.80;1.45;;;8.00;99.90;;;;;;5003611;28;20052;-83
2023/04/11 11:54:13;;;;;;;10.65;1.67;;;8.10;99.90;;;;;;5011799;28;20545;-84
2023/04/11 11:56:40;;;;;;;3.67;1.90;;;8.10;99.90;;;;;;5022098;28;20112;-82
2023/04/11 11:59:06;;;;;;;4.28;1.88;;;8.10;99.90;;;;;;5013680;28;20053;-80
2023/04/11 12:01:33;;;;;;;5.38;2.17;;;8.10;99.90;;;;;;5018400;28;20092;-93
2023/04/11 12:03:59;;;;;;;3.53;1.70;;;8.10;99.90;;;;;;5023643;28;20229;-88
2023/04/11 12:06:32;;;;;;;6.55;1.40;;;8.20;99.90;;;;;;5021783;28;20072;-89
2023/04/11 12:09:06;;;;;;;7.18;1.35;;;8.10;99.90;;;;;;5020812;28;20049;-96
2023/04/11 12:11:42;;;;;;;1.50;1.33;;;8.20;99.90;;;;;;5016969;28;20464;-90
2023/04/11 12:14:08;;;;;;;2.25;0.70;;;8.30;99.90;;;;;;5026099;28;20577;-92
2023/04/11 12:16:37;;;;;;;2.65;1.63;;;8.30;99.90;;;;;;5027231;28;20042;-82
2023/04/11 12:19:03;;;;;;;2.25;2.03;;;8.40;99.90;;;;;;5025304;28;20045;-86
2023/04/11 12:21:30;;;;;;;2.45;1.05;;;8.50;99.90;;;;;;5026451;28;20113;-93
2023/04/11 12:23:56;;;;;;;7.20;1.30;;;8.40;99.90;;;;;;5025760;28;20104;-85
2023/04/11 12:26:22;;;;;;;3.63;1.08;;;8.40;99.90;;;;;;5024749;28;20084;-89
2023/04/11 12:28:49;;;;;;;2.88;1.67;;;8.40;99.90;;;;;;5006000;28;20034;-83
2023/04/11 12:31:15;;;;;;;6.40;2.40;;;8.40;99.90;;;;;;5019070;28;20057;-89
2023/04/11 12:33:40;;;;;;;1.92;1.83;;;8.40;99.90;;;;;;5018013;28;20120;-88
2023/04/11 12:36:06;;;;;;;7.00;1.20;;;8.50;99.90;;;;;;5016622;28;20158;-86
2023/04/11 12:38:32;;;;;;;4.30;1.48;;;8.50;99.90;;;;;;5020541;28;20096;-88
2023/04/11 12:40:58;;;;;;;1.23;0.60;;;8.50;99.90;;;;;;5019095;28;20579;-77
2023/04/11 12:43:24;;;;;;;1.83;0.73;;;8.50;99.90;;;;;;5023386;28;20133;-80
2023/04/11 12:45:50;;;;;;;3.15;0.85;;;8.50;99.90;;;;;;5025871;28;20049;-80
2023/04/11 12:48:15;;;;;;;0.47;0.47;;;8.50;99.90;;;;;;5006767;28;20578;-79
2023/04/11 12:50:41;;;;;;;1.92;1.30;;;8.50;99.90;;;;;;5024919;28;20048;-80
2023/04/11 12:53:06;;;;;;;5.45;0.75;;;8.50;99.90;;;;;;5024866;28;20038;-79
2023/04/11 12:55:35;;;;;;;0.80;0.80;;;8.50;99.90;;;;;;5025027;28;20450;-77
2023/04/11 12:58:01;;;;;;;3.03;0.93;;;8.50;99.90;;;;;;5024423;28;20037;-79
2023/04/11 13:00:27;;;;;;;3.00;1.10;;;8.50;99.90;;;;;;5011609;28;20358;-80